createdAt,value
2019-03-30T00:00:55.094Z,99.70
2019-03-30T00:03:31.814Z,99.70
2019-03-30T00:06:09.848Z,99.90
2019-03-30T00:08:55.059Z,99.70
2019-03-30T00:14:36.828Z,99.60
2019-03-30T00:17:14.043Z,99.50
2019-03-30T00:19:52.159Z,99.60
2019-03-30T00:22:27.179Z,99.60
2019-03-30T00:25:02.971Z,99.70
2019-03-30T00:27:49.987Z,99.80
2019-03-30T00:35:55.233Z,99.90
2019-03-30T00:37:19.181Z,99.90
2019-03-30T00:42:27.945Z,99.90
2019-03-30T00:44:56.804Z,99.90
2019-03-30T00:50:30.553Z,99.90
2019-03-30T00:53:02.438Z,99.90
2019-03-30T00:55:36.725Z,99.90
2019-03-30T00:58:08.261Z,99.90
2019-03-30T01:00:43.016Z,99.90
2019-03-30T01:03:21.381Z,99.90
2019-03-30T01:05:59.251Z,99.90
2019-03-30T01:08:35.998Z,99.90
2019-03-30T01:11:13.708Z,99.90
2019-03-30T01:13:55.420Z,99.90
2019-03-30T01:19:20.457Z,99.90
2019-03-30T01:21:58.926Z,99.90
2019-03-30T01:24:42.770Z,99.90
2019-03-30T01:27:14.836Z,99.90
2019-03-30T01:29:54.846Z,99.90
2019-03-30T01:32:29.458Z,99.90
2019-03-30T01:35:09.008Z,99.90
2019-03-30T01:37:45.680Z,99.90
2019-03-30T01:40:32.568Z,99.90
2019-03-30T01:43:11.378Z,99.90
2019-03-30T01:51:55.431Z,99.90
2019-03-30T01:54:38.085Z,99.90
2019-03-30T01:57:12.368Z,99.90
2019-03-30T02:15:10.566Z,99.90
2019-03-30T02:17:58.157Z,99.90
2019-03-30T02:20:33.783Z,99.90
2019-03-30T02:23:09.032Z,99.90
2019-03-30T02:25:51.553Z,99.90
2019-03-30T02:28:27.807Z,99.90
2019-03-30T02:34:13.424Z,99.90
2019-03-30T02:40:04.861Z,99.90
2019-03-30T02:42:41.397Z,99.90
2019-03-30T02:46:40.809Z,99.90
2019-03-30T02:48:36.902Z,99.90
2019-03-30T02:54:11.639Z,99.90
2019-03-30T02:56:43.553Z,99.90
2019-03-30T02:59:17.942Z,99.90
2019-03-30T03:01:52.181Z,99.90
2019-03-30T03:04:26.538Z,99.90
2019-03-30T03:06:59.961Z,99.90
2019-03-30T03:09:36.359Z,99.90
2019-03-30T03:12:12.946Z,99.90
2019-03-30T03:18:01.478Z,99.90
2019-03-30T03:20:39.441Z,99.90
2019-03-30T03:23:19.147Z,99.90
2019-03-30T03:25:57.978Z,99.90
2019-03-30T03:28:31.108Z,99.90
2019-03-30T03:31:15.539Z,99.90
2019-03-30T03:33:47.002Z,99.90
2019-03-30T03:36:20.625Z,99.90
2019-03-30T03:38:58.990Z,99.90
2019-03-30T03:41:32.971Z,99.90
2019-03-30T03:44:06.772Z,99.90
2019-03-30T03:49:32.961Z,99.90
2019-03-30T03:52:23.380Z,99.90
2019-03-30T03:55:31.669Z,99.90
2019-03-30T03:57:56.267Z,99.90
2019-03-30T04:00:48.878Z,99.90
2019-03-30T04:06:35.559Z,99.90
2019-03-30T04:12:25.879Z,99.90
2019-03-30T04:15:09.769Z,99.90
2019-03-30T04:17:47.188Z,99.90
2019-03-30T04:20:23.129Z,99.90
2019-03-30T04:24:12.419Z,99.90
2019-03-30T04:26:37.197Z,99.90
2019-03-30T04:28:34.875Z,99.90
2019-03-30T04:31:15.115Z,99.90
2019-03-30T04:33:48.953Z,99.90
2019-03-30T04:36:27.387Z,99.90
2019-03-30T04:39:07.339Z,99.90
2019-03-30T04:41:42.892Z,99.90
2019-03-30T04:44:13.352Z,99.90
2019-03-30T04:46:45.969Z,99.90
2019-03-30T04:49:23.750Z,99.90
2019-03-30T04:52:01.354Z,99.90
2019-03-30T04:56:13.599Z,99.90
2019-03-30T05:00:41.066Z,99.90
2019-03-30T05:06:08.563Z,99.90
2019-03-30T05:08:48.659Z,99.90
2019-03-30T05:11:27.492Z,99.90
2019-03-30T05:14:02.783Z,99.90
2019-03-30T05:16:44.236Z,99.90
2019-03-30T05:19:21.556Z,99.90
2019-03-30T05:21:55.086Z,99.90
2019-03-30T05:24:34.574Z,99.90
2019-03-30T05:29:58.722Z,99.90
2019-03-30T05:32:41.485Z,99.90
2019-03-30T05:35:44.886Z,99.90
2019-03-30T05:38:21.896Z,99.90
2019-03-30T05:40:53.726Z,99.90
2019-03-30T05:43:30.113Z,99.90
2019-03-30T05:51:53.493Z,99.90
2019-03-30T05:54:30.003Z,99.90
2019-03-30T06:03:26.029Z,99.90
2019-03-30T06:09:15.618Z,99.90
2019-03-30T06:11:53.960Z,99.90
2019-03-30T06:14:41.198Z,99.90
2019-03-30T06:17:22.954Z,99.90
2019-03-30T06:20:01.016Z,99.90
2019-03-30T06:22:40.267Z,99.90
2019-03-30T06:25:10.829Z,99.90
2019-03-30T06:27:49.336Z,99.90
2019-03-30T06:30:26.571Z,99.90
2019-03-30T06:33:00.319Z,99.90
2019-03-30T06:35:41.331Z,99.90
2019-03-30T06:38:14.305Z,98.90
2019-03-30T06:40:57.844Z,96.60
2019-03-30T06:43:31.628Z,93.20
2019-03-30T06:46:25.881Z,91.00
2019-03-30T06:54:29.942Z,84.30
2019-03-30T07:00:21.234Z,78.80
2019-03-30T07:03:04.750Z,78.20
2019-03-30T07:05:42.242Z,76.60
2019-03-30T07:08:22.905Z,75.60
2019-03-30T07:11:02.667Z,73.50
2019-03-30T07:13:35.595Z,72.40
2019-03-30T07:16:15.729Z,72.10
2019-03-30T07:18:51.868Z,71.40
2019-03-30T07:21:29.167Z,70.20
2019-03-30T07:24:10.951Z,69.40
2019-03-30T07:26:42.695Z,69.00
2019-03-30T07:29:21.100Z,67.90
2019-03-30T07:34:46.748Z,67.50
2019-03-30T07:40:25.073Z,67.20
2019-03-30T07:43:21.027Z,67.80
2019-03-30T07:46:56.359Z,67.00
2019-03-30T07:51:58.510Z,66.50
2019-03-30T07:54:41.066Z,68.00
2019-03-30T07:57:16.816Z,68.40
2019-03-30T07:59:46.087Z,69.10
2019-03-30T08:02:20.809Z,70.80
2019-03-30T08:04:58.964Z,70.80
2019-03-30T08:07:34.333Z,71.00
2019-03-30T08:10:08.847Z,71.70
2019-03-30T08:12:43.019Z,72.20
2019-03-30T08:15:15.815Z,71.60
2019-03-30T08:17:56.197Z,71.80
2019-03-30T08:20:27.236Z,71.00
2019-03-30T08:23:19.306Z,70.70
2019-03-30T08:25:52.885Z,69.60
2019-03-30T08:28:24.324Z,68.30
2019-03-30T08:31:02.873Z,68.30
2019-03-30T08:33:47.438Z,65.70
2019-03-30T08:36:20.586Z,65.40
2019-03-30T08:39:27.563Z,63.80
2019-03-30T08:42:19.453Z,63.60
2019-03-30T08:45:01.881Z,62.00
2019-03-30T08:47:34.491Z,61.30
2019-03-30T08:53:03.647Z,61.80
2019-03-30T08:55:38.905Z,61.70
2019-03-30T08:58:22.933Z,60.90
2019-03-30T09:00:52.529Z,61.70
2019-03-30T09:03:26.761Z,61.10
2019-03-30T09:06:03.141Z,61.80
2019-03-30T09:08:38.261Z,61.30
2019-03-30T09:11:14.040Z,60.70
2019-03-30T09:29:20.252Z,59.20
2019-03-30T09:31:57.853Z,59.00
2019-03-30T09:40:46.318Z,58.50
2019-03-30T09:43:25.890Z,61.10
2019-03-30T09:49:18.758Z,65.00
2019-03-30T09:52:12.472Z,64.80
2019-03-30T09:54:53.654Z,63.80
2019-03-30T09:57:35.678Z,64.80
2019-03-30T10:00:36.896Z,65.80
2019-03-30T10:06:13.447Z,64.90
2019-03-30T10:08:48.250Z,62.90
2019-03-30T10:11:19.733Z,61.90
2019-03-30T10:13:58.885Z,62.40
2019-03-30T10:16:32.690Z,63.50
2019-03-30T10:19:05.308Z,61.70
2019-03-30T10:21:45.571Z,60.50
2019-03-30T10:27:10.138Z,60.10
2019-03-30T10:29:43.591Z,58.40
2019-03-30T10:32:24.419Z,57.10
2019-03-30T10:34:55.115Z,57.30
2019-03-30T10:37:26.742Z,57.00
2019-03-30T10:39:56.580Z,58.80
2019-03-30T10:42:27.624Z,60.30
2019-03-30T10:44:57.459Z,59.60
2019-03-30T10:47:40.664Z,60.20
2019-03-30T10:53:10.912Z,58.40
2019-03-30T10:55:52.878Z,58.60
2019-03-30T10:58:30.645Z,58.20
2019-03-30T11:01:00.419Z,58.30
2019-03-30T11:03:47.295Z,58.40
2019-03-30T11:06:25.101Z,58.20
2019-03-30T11:08:56.659Z,57.30
2019-03-30T11:11:27.457Z,56.10
2019-03-30T11:13:59.703Z,55.50
2019-03-30T11:16:29.507Z,55.00
2019-03-30T11:19:02.270Z,53.90
2019-03-30T11:21:33.381Z,54.40
2019-03-30T11:24:06.546Z,54.20
2019-03-30T11:26:42.235Z,53.00
2019-03-30T11:29:47.113Z,51.80
2019-03-30T11:32:11.395Z,52.30
2019-03-30T11:34:50.490Z,51.40
2019-03-30T11:37:22.273Z,51.40
2019-03-30T11:39:53.447Z,51.20
2019-03-30T11:42:32.378Z,50.90
2019-03-30T11:45:10.933Z,49.80
2019-03-30T11:47:46.891Z,50.60
2019-03-30T11:50:19.432Z,51.00
2019-03-30T11:52:52.412Z,49.90
2019-03-30T11:55:24.533Z,48.30
2019-03-30T11:57:58.912Z,48.10
2019-03-30T12:00:32.646Z,47.90
2019-03-30T12:03:25.300Z,46.80
2019-03-30T12:06:11.553Z,47.20
2019-03-30T12:10:28.734Z,45.60
2019-03-30T12:14:23.165Z,45.60
2019-03-30T12:16:58.507Z,45.90
2019-03-30T12:19:48.435Z,47.10
2019-03-30T12:22:22.905Z,47.70
2019-03-30T12:24:54.934Z,46.40
2019-03-30T12:27:28.062Z,45.20
2019-03-30T12:30:02.662Z,44.40
2019-03-30T12:32:35.898Z,43.80
2019-03-30T12:35:07.566Z,42.70
2019-03-30T12:37:40.937Z,41.50
2019-03-30T12:40:13.114Z,41.70
2019-03-30T12:42:45.991Z,41.30
2019-03-30T12:45:21.492Z,41.30
2019-03-30T12:48:20.093Z,40.90
2019-03-30T12:50:40.769Z,41.00
2019-03-30T12:53:15.353Z,42.50
2019-03-30T12:56:01.381Z,42.60
2019-03-30T12:58:41.429Z,42.20
2019-03-30T13:01:15.729Z,42.30
2019-03-30T13:03:51.678Z,41.70
2019-03-30T13:06:28.870Z,41.00
2019-03-30T13:09:11.567Z,39.90
2019-03-30T13:11:51.498Z,38.90
2019-03-30T13:14:24.977Z,39.40
2019-03-30T13:16:55.255Z,40.10
2019-03-30T13:19:29.540Z,39.50
2019-03-30T13:22:04.823Z,40.40
2019-03-30T13:24:35.894Z,40.20
2019-03-30T13:27:12.937Z,40.00
2019-03-30T13:29:45.369Z,41.50
2019-03-30T13:32:15.241Z,41.70
2019-03-30T13:34:47.202Z,41.50
2019-03-30T13:37:20.133Z,41.60
2019-03-30T13:39:56.219Z,40.60
2019-03-30T13:42:39.055Z,39.20
2019-03-30T13:45:15.130Z,39.10
2019-03-30T13:47:50.115Z,38.10
2019-03-30T13:50:25.639Z,38.30
2019-03-30T13:53:01.608Z,38.30
2019-03-30T13:55:35.640Z,37.40
2019-03-30T13:58:10.883Z,38.00
2019-03-30T14:03:43.077Z,36.60
2019-03-30T14:06:31.064Z,36.70
2019-03-30T14:09:03.416Z,36.60
2019-03-30T14:11:36.559Z,37.20
2019-03-30T14:14:08.225Z,38.20
2019-03-30T14:16:55.939Z,38.40
2019-03-30T14:19:38.047Z,37.20
2019-03-30T14:22:14.094Z,37.20
2019-03-30T14:24:48.066Z,38.10
2019-03-30T14:27:31.750Z,38.50
2019-03-30T14:30:17.542Z,38.60
2019-03-30T14:32:54.601Z,38.50
2019-03-30T14:35:31.198Z,38.60
2019-03-30T14:38:03.288Z,39.00
2019-03-30T14:43:32.120Z,39.90
2019-03-30T14:46:10.107Z,39.30
2019-03-30T14:48:49.920Z,39.80
2019-03-30T14:51:33.035Z,40.30
2019-03-30T14:54:26.969Z,40.30
2019-03-30T14:57:12.610Z,39.70
2019-03-30T14:59:52.362Z,39.90
2019-03-30T15:03:40.070Z,41.20
2019-03-30T15:05:49.910Z,42.00
2019-03-30T15:08:25.595Z,42.30
2019-03-30T15:11:05.214Z,43.00
2019-03-30T15:16:52.984Z,43.90
2019-03-30T15:25:51.560Z,44.80
2019-03-30T15:28:34.906Z,45.10
2019-03-30T15:40:19.767Z,45.20
2019-03-30T15:42:53.496Z,45.70
2019-03-30T15:45:26.694Z,46.10
2019-03-30T15:48:05.201Z,47.30
2019-03-30T15:50:38.272Z,47.70
2019-03-30T15:56:09.815Z,47.50
2019-03-30T15:58:57.869Z,47.90
2019-03-30T16:04:26.047Z,48.80
2019-03-30T16:07:01.810Z,49.20
2019-03-30T16:09:41.720Z,49.40
2019-03-30T16:12:13.255Z,50.30
2019-03-30T16:14:49.559Z,51.60
2019-03-30T16:17:36.241Z,52.60
2019-03-30T16:20:48.274Z,53.70
2019-03-30T16:26:25.512Z,55.70
2019-03-30T16:29:04.149Z,56.10
2019-03-30T16:31:41.803Z,56.70
2019-03-30T16:34:17.261Z,56.90
2019-03-30T16:39:45.547Z,57.40
2019-03-30T16:42:22.657Z,57.60
2019-03-30T16:45:01.939Z,58.40
2019-03-30T16:47:34.620Z,57.90
2019-03-30T16:50:31.446Z,58.20
2019-03-30T16:53:11.097Z,58.40
2019-03-30T16:55:51.958Z,59.10
2019-03-30T17:01:22.654Z,60.80
2019-03-30T17:07:00.814Z,62.10
2019-03-30T17:09:37.659Z,62.50
2019-03-30T17:12:23.144Z,63.10
2019-03-30T17:15:03.089Z,63.50
2019-03-30T17:24:05.424Z,64.60
2019-03-30T17:26:52.365Z,65.10
2019-03-30T17:29:25.244Z,65.50
2019-03-30T17:31:58.622Z,66.30
2019-03-30T17:34:32.521Z,66.60
2019-03-30T17:37:06.728Z,67.20
2019-03-30T17:39:41.696Z,68.40
2019-03-30T17:42:21.352Z,68.70
2019-03-30T17:44:55.984Z,69.40
2019-03-30T17:47:32.112Z,70.20
2019-03-30T17:50:13.060Z,70.90
2019-03-30T17:52:50.443Z,70.90
2019-03-30T17:55:33.532Z,71.40
2019-03-30T17:58:11.932Z,71.80
2019-03-30T18:00:31.267Z,72.20
2019-03-30T18:03:08.030Z,72.60
2019-03-30T18:05:40.761Z,72.80
2019-03-30T18:08:17.917Z,73.20
2019-03-30T18:11:04.020Z,73.50
2019-03-30T18:13:44.716Z,73.80
2019-03-30T18:16:22.406Z,74.20
2019-03-30T18:18:55.974Z,74.40
2019-03-30T18:21:31.618Z,74.70
2019-03-30T18:24:03.671Z,74.80
2019-03-30T18:26:41.078Z,75.00
2019-03-30T18:29:19.065Z,75.20
2019-03-30T18:31:57.605Z,75.30
2019-03-30T18:34:31.046Z,75.50
2019-03-30T18:37:15.772Z,75.60
2019-03-30T18:39:46.484Z,75.60
2019-03-30T18:42:19.169Z,75.80
2019-03-30T18:44:56.396Z,75.80
2019-03-30T18:47:27.915Z,75.80
2019-03-30T18:49:59.603Z,76.00
2019-03-30T18:52:31.174Z,76.10
2019-03-30T18:55:03.527Z,76.00
2019-03-30T18:57:40.986Z,76.10
2019-03-30T19:00:24.566Z,76.10
2019-03-30T19:05:53.078Z,76.10
2019-03-30T19:08:25.122Z,76.90
2019-03-30T19:10:56.287Z,77.80
2019-03-30T19:13:36.033Z,78.80
2019-03-30T19:16:07.220Z,79.80
2019-03-30T19:18:57.292Z,80.50
2019-03-30T19:21:32.806Z,81.20
2019-03-30T19:24:23.381Z,81.70
2019-03-30T19:26:57.224Z,83.10
2019-03-30T19:29:30.567Z,83.00
2019-03-30T19:32:04.048Z,83.50
2019-03-30T19:34:40.820Z,84.00
2019-03-30T19:37:11.088Z,84.30
2019-03-30T19:39:45.606Z,84.30
2019-03-30T19:42:23.249Z,85.00
2019-03-30T19:45:12.064Z,85.60
2019-03-30T19:47:51.376Z,86.00
2019-03-30T19:50:22.357Z,86.30
2019-03-30T19:52:55.308Z,86.90
2019-03-30T19:55:30.857Z,88.30
2019-03-30T20:17:35.458Z,91.80
2019-03-30T20:20:17.908Z,92.10
2019-03-30T20:25:45.600Z,92.40
2019-03-30T20:31:26.379Z,92.80
2019-03-30T20:37:10.939Z,93.30
2019-03-30T20:40:05.779Z,93.50
2019-03-30T20:46:04.572Z,94.00
2019-03-30T20:48:43.888Z,94.20
2019-03-30T20:54:16.592Z,94.60
2019-03-30T20:56:55.419Z,94.80
2019-03-30T20:59:39.772Z,94.80
2019-03-30T21:23:50.946Z,95.20
2019-03-30T21:26:28.757Z,95.20
2019-03-30T21:29:10.071Z,95.30
2019-03-30T21:31:49.134Z,95.50
2019-03-30T21:34:27.411Z,95.60
2019-03-30T21:40:16.288Z,95.50
2019-03-30T21:46:07.386Z,95.70
2019-03-30T21:48:53.930Z,95.90
2019-03-30T21:51:33.744Z,96.00
2019-03-30T21:54:19.613Z,96.10
